sensor_id;sensor_type;location;lat;lon;timestamp;temperature;humidity
9057;DHT22;4563;54.756;9.400;2023-07-31T00:01:01;18.00;73.20
9057;DHT22;4563;54.756;9.400;2023-07-31T00:03:28;18.10;73.50
9057;DHT22;4563;54.756;9.400;2023-07-31T00:05:54;18.10;73.70
9057;DHT22;4563;54.756;9.400;2023-07-31T00:08:21;18.00;73.70
9057;DHT22;4563;54.756;9.400;2023-07-31T00:10:51;18.00;73.80
9057;DHT22;4563;54.756;9.400;2023-07-31T00:13:18;18.00;73.90
9057;DHT22;4563;54.756;9.400;2023-07-31T00:15:46;18.00;73.90
9057;DHT22;4563;54.756;9.400;2023-07-31T00:18:13;18.00;74.10
9057;DHT22;4563;54.756;9.400;2023-07-31T00:20:40;18.00;74.20
9057;DHT22;4563;54.756;9.400;2023-07-31T00:23:06;18.00;74.30
9057;DHT22;4563;54.756;9.400;2023-07-31T00:25:33;18.00;74.40
9057;DHT22;4563;54.756;9.400;2023-07-31T00:28:00;18.00;74.60
9057;DHT22;4563;54.756;9.400;2023-07-31T00:30:27;18.00;74.60
9057;DHT22;4563;54.756;9.400;2023-07-31T00:32:55;18.00;74.70
9057;DHT22;4563;54.756;9.400;2023-07-31T00:35:22;18.00;74.80
9057;DHT22;4563;54.756;9.400;2023-07-31T00:37:48;18.00;74.90
9057;DHT22;4563;54.756;9.400;2023-07-31T00:40:15;18.00;74.90
9057;DHT22;4563;54.756;9.400;2023-07-31T00:42:42;18.00;75.10
9057;DHT22;4563;54.756;9.400;2023-07-31T00:45:09;18.00;75.10
9057;DHT22;4563;54.756;9.400;2023-07-31T00:47:36;18.00;75.30
9057;DHT22;4563;54.756;9.400;2023-07-31T00:50:05;18.00;75.30
9057;DHT22;4563;54.756;9.400;2023-07-31T00:52:33;18.00;75.40
9057;DHT22;4563;54.756;9.400;2023-07-31T00:55:00;18.00;75.40
9057;DHT22;4563;54.756;9.400;2023-07-31T00:57:27;18.00;75.40
9057;DHT22;4563;54.756;9.400;2023-07-31T00:59:53;18.00;76.20
9057;DHT22;4563;54.756;9.400;2023-07-31T01:02:20;17.90;76.20
9057;DHT22;4563;54.756;9.400;2023-07-31T01:04:47;18.00;75.60
9057;DHT22;4563;54.756;9.400;2023-07-31T01:07:22;17.90;75.50
9057;DHT22;4563;54.756;9.400;2023-07-31T01:09:58;17.90;75.60
9057;DHT22;4563;54.756;9.400;2023-07-31T01:12:27;17.90;75.60
9057;DHT22;4563;54.756;9.400;2023-07-31T01:15:03;17.90;75.70
9057;DHT22;4563;54.756;9.400;2023-07-31T01:17:30;17.90;76.50
9057;DHT22;4563;54.756;9.400;2023-07-31T01:20:00;17.90;75.90
9057;DHT22;4563;54.756;9.400;2023-07-31T01:25:50;17.90;76.00
9057;DHT22;4563;54.756;9.400;2023-07-31T01:28:20;17.80;75.90
9057;DHT22;4563;54.756;9.400;2023-07-31T01:30:50;17.80;76.00
9057;DHT22;4563;54.756;9.400;2023-07-31T01:33:17;17.80;76.10
9057;DHT22;4563;54.756;9.400;2023-07-31T01:35:45;17.80;76.10
9057;DHT22;4563;54.756;9.400;2023-07-31T01:38:13;17.80;76.30
9057;DHT22;4563;54.756;9.400;2023-07-31T01:40:42;17.80;76.30
9057;DHT22;4563;54.756;9.400;2023-07-31T01:43:10;17.80;76.30
9057;DHT22;4563;54.756;9.400;2023-07-31T01:45:37;17.80;77.00
9057;DHT22;4563;54.756;9.400;2023-07-31T01:48:04;17.80;76.30
9057;DHT22;4563;54.756;9.400;2023-07-31T01:50:30;17.70;76.20
9057;DHT22;4563;54.756;9.400;2023-07-31T01:52:57;17.70;76.20
9057;DHT22;4563;54.756;9.400;2023-07-31T01:55:24;17.70;76.30
9057;DHT22;4563;54.756;9.400;2023-07-31T01:57:51;17.70;76.30
9057;DHT22;4563;54.756;9.400;2023-07-31T02:00:19;17.70;76.50
9057;DHT22;4563;54.756;9.400;2023-07-31T02:02:46;17.70;76.50
9057;DHT22;4563;54.756;9.400;2023-07-31T02:05:13;17.70;76.50
9057;DHT22;4563;54.756;9.400;2023-07-31T02:07:40;17.70;76.60
9057;DHT22;4563;54.756;9.400;2023-07-31T02:10:07;17.70;76.70
9057;DHT22;4563;54.756;9.400;2023-07-31T02:12:34;17.70;76.80
9057;DHT22;4563;54.756;9.400;2023-07-31T02:15:00;17.70;76.80
9057;DHT22;4563;54.756;9.400;2023-07-31T02:17:28;17.70;76.90
9057;DHT22;4563;54.756;9.400;2023-07-31T02:19:55;17.70;77.00
9057;DHT22;4563;54.756;9.400;2023-07-31T02:22:22;17.70;77.20
9057;DHT22;4563;54.756;9.400;2023-07-31T02:24:49;17.70;77.20
9057;DHT22;4563;54.756;9.400;2023-07-31T02:27:15;17.70;77.40
9057;DHT22;4563;54.756;9.400;2023-07-31T02:29:42;17.70;77.50
9057;DHT22;4563;54.756;9.400;2023-07-31T02:32:09;17.70;77.60
9057;DHT22;4563;54.756;9.400;2023-07-31T02:34:37;17.70;77.60
9057;DHT22;4563;54.756;9.400;2023-07-31T02:37:04;17.70;77.80
9057;DHT22;4563;54.756;9.400;2023-07-31T02:39:31;17.60;77.80
9057;DHT22;4563;54.756;9.400;2023-07-31T02:41:59;17.70;77.90
9057;DHT22;4563;54.756;9.400;2023-07-31T02:44:26;17.70;78.10
9057;DHT22;4563;54.756;9.400;2023-07-31T02:46:52;17.70;78.10
9057;DHT22;4563;54.756;9.400;2023-07-31T02:49:19;17.70;78.30
9057;DHT22;4563;54.756;9.400;2023-07-31T02:51:47;17.70;78.40
9057;DHT22;4563;54.756;9.400;2023-07-31T02:54:14;17.70;78.70
9057;DHT22;4563;54.756;9.400;2023-07-31T02:56:41;17.70;78.70
9057;DHT22;4563;54.756;9.400;2023-07-31T02:59:07;17.70;78.70
9057;DHT22;4563;54.756;9.400;2023-07-31T03:01:34;17.70;78.70
9057;DHT22;4563;54.756;9.400;2023-07-31T03:04:01;17.70;78.80
9057;DHT22;4563;54.756;9.400;2023-07-31T03:06:28;17.70;78.80
9057;DHT22;4563;54.756;9.400;2023-07-31T03:08:56;17.80;78.80
9057;DHT22;4563;54.756;9.400;2023-07-31T03:11:23;17.80;78.90
9057;DHT22;4563;54.756;9.400;2023-07-31T03:13:49;17.80;78.90
9057;DHT22;4563;54.756;9.400;2023-07-31T03:16:16;17.80;78.90
9057;DHT22;4563;54.756;9.400;2023-07-31T03:18:43;17.80;78.90
9057;DHT22;4563;54.756;9.400;2023-07-31T03:21:10;17.80;78.90
9057;DHT22;4563;54.756;9.400;2023-07-31T03:23:36;17.80;78.90
9057;DHT22;4563;54.756;9.400;2023-07-31T03:26:07;17.80;78.80
9057;DHT22;4563;54.756;9.400;2023-07-31T03:28:34;17.80;78.90
9057;DHT22;4563;54.756;9.400;2023-07-31T03:31:00;17.80;78.90
9057;DHT22;4563;54.756;9.400;2023-07-31T03:33:27;17.80;78.80
9057;DHT22;4563;54.756;9.400;2023-07-31T03:35:54;17.70;78.80
9057;DHT22;4563;54.756;9.400;2023-07-31T03:38:21;17.80;78.90
9057;DHT22;4563;54.756;9.400;2023-07-31T03:40:48;17.80;78.90
9057;DHT22;4563;54.756;9.400;2023-07-31T03:43:16;17.80;78.90
9057;DHT22;4563;54.756;9.400;2023-07-31T03:45:42;17.80;78.90
9057;DHT22;4563;54.756;9.400;2023-07-31T03:48:09;17.70;78.80
9057;DHT22;4563;54.756;9.400;2023-07-31T03:50:36;17.80;78.90
9057;DHT22;4563;54.756;9.400;2023-07-31T03:53:03;17.80;78.90
9057;DHT22;4563;54.756;9.400;2023-07-31T03:55:30;17.80;79.00
9057;DHT22;4563;54.756;9.400;2023-07-31T03:57:56;17.80;79.00
9057;DHT22;4563;54.756;9.400;2023-07-31T04:00:25;17.80;78.90
9057;DHT22;4563;54.756;9.400;2023-07-31T04:02:52;17.70;79.00
9057;DHT22;4563;54.756;9.400;2023-07-31T04:05:19;17.80;79.00
9057;DHT22;4563;54.756;9.400;2023-07-31T04:07:46;17.70;79.00
9057;DHT22;4563;54.756;9.400;2023-07-31T04:10:13;17.80;79.20
9057;DHT22;4563;54.756;9.400;2023-07-31T04:12:40;17.80;79.20
9057;DHT22;4563;54.756;9.400;2023-07-31T04:15:07;17.80;79.30
9057;DHT22;4563;54.756;9.400;2023-07-31T04:17:35;17.80;79.50
9057;DHT22;4563;54.756;9.400;2023-07-31T04:20:02;17.80;79.50
9057;DHT22;4563;54.756;9.400;2023-07-31T04:22:29;17.80;79.60
9057;DHT22;4563;54.756;9.400;2023-07-31T04:24:55;17.80;79.50
9057;DHT22;4563;54.756;9.400;2023-07-31T04:27:22;17.90;79.70
9057;DHT22;4563;54.756;9.400;2023-07-31T04:29:49;17.90;79.70
9057;DHT22;4563;54.756;9.400;2023-07-31T04:32:16;17.90;81.60
9057;DHT22;4563;54.756;9.400;2023-07-31T04:34:44;17.90;80.60
9057;DHT22;4563;54.756;9.400;2023-07-31T04:37:11;17.90;80.50
9057;DHT22;4563;54.756;9.400;2023-07-31T04:39:39;17.90;80.40
9057;DHT22;4563;54.756;9.400;2023-07-31T04:42:06;17.90;80.40
9057;DHT22;4563;54.756;9.400;2023-07-31T04:44:32;17.90;80.30
9057;DHT22;4563;54.756;9.400;2023-07-31T04:46:59;17.90;80.20
9057;DHT22;4563;54.756;9.400;2023-07-31T04:49:27;18.00;80.30
9057;DHT22;4563;54.756;9.400;2023-07-31T04:51:55;17.90;80.20
9057;DHT22;4563;54.756;9.400;2023-07-31T04:54:22;18.00;80.30
9057;DHT22;4563;54.756;9.400;2023-07-31T04:56:49;18.00;80.30
9057;DHT22;4563;54.756;9.400;2023-07-31T04:59:15;18.00;80.30
9057;DHT22;4563;54.756;9.400;2023-07-31T05:01:42;18.00;80.30
9057;DHT22;4563;54.756;9.400;2023-07-31T05:04:12;18.00;80.40
9057;DHT22;4563;54.756;9.400;2023-07-31T05:06:38;18.00;80.50
9057;DHT22;4563;54.756;9.400;2023-07-31T05:09:07;18.00;80.40
9057;DHT22;4563;54.756;9.400;2023-07-31T05:11:34;18.10;80.60
9057;DHT22;4563;54.756;9.400;2023-07-31T05:14:01;18.10;80.60
9057;DHT22;4563;54.756;9.400;2023-07-31T05:16:28;18.10;80.70
9057;DHT22;4563;54.756;9.400;2023-07-31T05:18:55;18.10;80.70
9057;DHT22;4563;54.756;9.400;2023-07-31T05:21:21;18.10;80.70
9057;DHT22;4563;54.756;9.400;2023-07-31T05:23:49;18.10;80.70
9057;DHT22;4563;54.756;9.400;2023-07-31T05:26:17;18.10;80.80
9057;DHT22;4563;54.756;9.400;2023-07-31T05:28:44;18.10;80.90
9057;DHT22;4563;54.756;9.400;2023-07-31T05:31:10;18.20;81.00
9057;DHT22;4563;54.756;9.400;2023-07-31T05:33:37;18.20;81.10
9057;DHT22;4563;54.756;9.400;2023-07-31T05:36:04;18.20;81.10
9057;DHT22;4563;54.756;9.400;2023-07-31T05:38:31;18.20;81.10
9057;DHT22;4563;54.756;9.400;2023-07-31T05:40:58;18.20;81.20
9057;DHT22;4563;54.756;9.400;2023-07-31T05:43:26;18.20;81.20
9057;DHT22;4563;54.756;9.400;2023-07-31T05:45:53;18.20;81.30
9057;DHT22;4563;54.756;9.400;2023-07-31T05:48:19;18.20;81.30
9057;DHT22;4563;54.756;9.400;2023-07-31T05:50:46;18.30;81.40
9057;DHT22;4563;54.756;9.400;2023-07-31T05:53:13;18.30;81.40
9057;DHT22;4563;54.756;9.400;2023-07-31T05:55:40;18.30;81.50
9057;DHT22;4563;54.756;9.400;2023-07-31T05:58:06;18.30;81.50
9057;DHT22;4563;54.756;9.400;2023-07-31T06:00:35;18.30;81.60
9057;DHT22;4563;54.756;9.400;2023-07-31T06:03:01;18.30;81.70
9057;DHT22;4563;54.756;9.400;2023-07-31T06:05:28;18.30;81.80
9057;DHT22;4563;54.756;9.400;2023-07-31T06:07:55;18.40;82.00
9057;DHT22;4563;54.756;9.400;2023-07-31T06:10:22;18.40;82.00
9057;DHT22;4563;54.756;9.400;2023-07-31T06:12:49;18.40;82.20
9057;DHT22;4563;54.756;9.400;2023-07-31T06:15:15;18.40;82.30
9057;DHT22;4563;54.756;9.400;2023-07-31T06:17:44;18.50;82.50
9057;DHT22;4563;54.756;9.400;2023-07-31T06:20:11;18.50;82.60
9057;DHT22;4563;54.756;9.400;2023-07-31T06:22:38;18.50;82.60
9057;DHT22;4563;54.756;9.400;2023-07-31T06:25:05;18.50;83.40
9057;DHT22;4563;54.756;9.400;2023-07-31T06:27:32;18.60;82.90
9057;DHT22;4563;54.756;9.400;2023-07-31T06:29:59;18.60;82.90
9057;DHT22;4563;54.756;9.400;2023-07-31T06:32:26;18.60;82.90
9057;DHT22;4563;54.756;9.400;2023-07-31T06:34:54;18.60;82.90
9057;DHT22;4563;54.756;9.400;2023-07-31T06:37:21;18.70;83.00
9057;DHT22;4563;54.756;9.400;2023-07-31T06:39:47;18.60;82.90
9057;DHT22;4563;54.756;9.400;2023-07-31T06:42:14;18.70;83.00
9057;DHT22;4563;54.756;9.400;2023-07-31T06:44:41;18.70;83.10
9057;DHT22;4563;54.756;9.400;2023-07-31T06:47:08;18.70;83.20
9057;DHT22;4563;54.756;9.400;2023-07-31T06:49:35;18.70;83.30
9057;DHT22;4563;54.756;9.400;2023-07-31T06:52:03;18.80;83.40
9057;DHT22;4563;54.756;9.400;2023-07-31T06:54:30;18.80;83.50
9057;DHT22;4563;54.756;9.400;2023-07-31T06:56:57;18.80;83.50
9057;DHT22;4563;54.756;9.400;2023-07-31T06:59:24;18.90;83.70
9057;DHT22;4563;54.756;9.400;2023-07-31T07:01:50;18.90;83.80
9057;DHT22;4563;54.756;9.400;2023-07-31T07:04:17;18.90;83.80
9057;DHT22;4563;54.756;9.400;2023-07-31T07:06:44;19.00;84.00
9057;DHT22;4563;54.756;9.400;2023-07-31T07:09:12;19.00;83.90
9057;DHT22;4563;54.756;9.400;2023-07-31T07:11:39;19.00;84.10
9057;DHT22;4563;54.756;9.400;2023-07-31T07:14:06;19.00;84.10
9057;DHT22;4563;54.756;9.400;2023-07-31T07:16:32;19.10;84.20
9057;DHT22;4563;54.756;9.400;2023-07-31T07:18:59;19.10;84.20
9057;DHT22;4563;54.756;9.400;2023-07-31T07:21:26;19.10;84.30
9057;DHT22;4563;54.756;9.400;2023-07-31T07:23:53;19.20;84.30
9057;DHT22;4563;54.756;9.400;2023-07-31T07:26:21;19.20;84.30
9057;DHT22;4563;54.756;9.400;2023-07-31T07:28:48;19.20;84.20
9057;DHT22;4563;54.756;9.400;2023-07-31T07:31:14;19.20;84.00
9057;DHT22;4563;54.756;9.400;2023-07-31T07:33:41;19.30;83.90
9057;DHT22;4563;54.756;9.400;2023-07-31T07:36:08;19.30;83.70
9057;DHT22;4563;54.756;9.400;2023-07-31T07:38:35;19.30;83.40
9057;DHT22;4563;54.756;9.400;2023-07-31T07:41:02;19.30;83.30
9057;DHT22;4563;54.756;9.400;2023-07-31T07:43:30;19.30;83.10
9057;DHT22;4563;54.756;9.400;2023-07-31T07:45:57;19.30;83.00
9057;DHT22;4563;54.756;9.400;2023-07-31T07:48:24;19.40;83.10
9057;DHT22;4563;54.756;9.400;2023-07-31T07:50:51;19.40;83.00
9057;DHT22;4563;54.756;9.400;2023-07-31T07:53:18;19.40;83.00
9057;DHT22;4563;54.756;9.400;2023-07-31T07:55:45;19.40;82.90
9057;DHT22;4563;54.756;9.400;2023-07-31T07:58:11;19.40;82.80
9057;DHT22;4563;54.756;9.400;2023-07-31T08:00:39;19.40;82.80
9057;DHT22;4563;54.756;9.400;2023-07-31T08:03:06;19.50;82.90
9057;DHT22;4563;54.756;9.400;2023-07-31T08:05:33;19.50;83.00
9057;DHT22;4563;54.756;9.400;2023-07-31T08:08:00;19.50;83.10
9057;DHT22;4563;54.756;9.400;2023-07-31T08:10:27;19.60;83.20
9057;DHT22;4563;54.756;9.400;2023-07-31T08:12:53;19.60;83.20
9057;DHT22;4563;54.756;9.400;2023-07-31T08:15:20;19.60;83.10
9057;DHT22;4563;54.756;9.400;2023-07-31T08:17:48;19.70;83.10
9057;DHT22;4563;54.756;9.400;2023-07-31T08:20:15;19.70;83.00
9057;DHT22;4563;54.756;9.400;2023-07-31T08:22:42;19.70;82.90
9057;DHT22;4563;54.756;9.400;2023-07-31T08:25:09;19.70;82.70
9057;DHT22;4563;54.756;9.400;2023-07-31T08:27:35;19.80;82.70
9057;DHT22;4563;54.756;9.400;2023-07-31T08:30:03;19.70;82.30
9057;DHT22;4563;54.756;9.400;2023-07-31T08:32:30;19.80;82.40
9057;DHT22;4563;54.756;9.400;2023-07-31T08:34:58;19.80;82.30
9057;DHT22;4563;54.756;9.400;2023-07-31T08:37:24;19.80;82.20
9057;DHT22;4563;54.756;9.400;2023-07-31T08:39:51;19.80;82.20
9057;DHT22;4563;54.756;9.400;2023-07-31T08:42:19;19.90;82.30
9057;DHT22;4563;54.756;9.400;2023-07-31T08:44:46;19.90;82.30
9057;DHT22;4563;54.756;9.400;2023-07-31T08:47:14;19.90;82.20
9057;DHT22;4563;54.756;9.400;2023-07-31T08:49:42;19.90;82.10
9057;DHT22;4563;54.756;9.400;2023-07-31T08:52:11;19.90;81.90
9057;DHT22;4563;54.756;9.400;2023-07-31T08:54:38;19.90;81.80
9057;DHT22;4563;54.756;9.400;2023-07-31T08:57:06;20.00;81.70
9057;DHT22;4563;54.756;9.400;2023-07-31T08:59:35;20.00;81.80
9057;DHT22;4563;54.756;9.400;2023-07-31T09:02:06;20.00;81.70
9057;DHT22;4563;54.756;9.400;2023-07-31T09:04:34;20.00;81.70
9057;DHT22;4563;54.756;9.400;2023-07-31T09:07:02;20.10;81.90
9057;DHT22;4563;54.756;9.400;2023-07-31T09:09:31;20.00;81.70
9057;DHT22;4563;54.756;9.400;2023-07-31T09:11:58;20.10;81.70
9057;DHT22;4563;54.756;9.400;2023-07-31T09:14:26;20.10;81.60
9057;DHT22;4563;54.756;9.400;2023-07-31T09:16:54;20.10;81.40
9057;DHT22;4563;54.756;9.400;2023-07-31T09:19:25;20.10;81.30
9057;DHT22;4563;54.756;9.400;2023-07-31T09:21:55;20.20;81.40
9057;DHT22;4563;54.756;9.400;2023-07-31T09:24:25;20.20;81.20
9057;DHT22;4563;54.756;9.400;2023-07-31T09:26:55;20.20;80.80
9057;DHT22;4563;54.756;9.400;2023-07-31T09:29:23;20.20;80.60
9057;DHT22;4563;54.756;9.400;2023-07-31T09:31:50;20.20;80.40
9057;DHT22;4563;54.756;9.400;2023-07-31T09:34:17;20.20;80.40
9057;DHT22;4563;54.756;9.400;2023-07-31T09:36:47;20.30;80.40
9057;DHT22;4563;54.756;9.400;2023-07-31T09:39:16;20.30;80.20
9057;DHT22;4563;54.756;9.400;2023-07-31T09:41:47;20.30;80.00
9057;DHT22;4563;54.756;9.400;2023-07-31T09:44:15;20.30;79.70
9057;DHT22;4563;54.756;9.400;2023-07-31T09:46:42;20.30;79.50
9057;DHT22;4563;54.756;9.400;2023-07-31T09:49:10;20.30;79.50
9057;DHT22;4563;54.756;9.400;2023-07-31T09:51:38;20.40;79.60
9057;DHT22;4563;54.756;9.400;2023-07-31T09:54:15;20.40;79.50
9057;DHT22;4563;54.756;9.400;2023-07-31T09:56:43;20.40;79.00
9057;DHT22;4563;54.756;9.400;2023-07-31T09:59:16;20.40;79.30
9057;DHT22;4563;54.756;9.400;2023-07-31T10:01:44;20.40;79.10
9057;DHT22;4563;54.756;9.400;2023-07-31T10:04:13;20.40;79.00
9057;DHT22;4563;54.756;9.400;2023-07-31T10:06:42;20.40;79.00
9057;DHT22;4563;54.756;9.400;2023-07-31T10:09:11;20.40;78.70
9057;DHT22;4563;54.756;9.400;2023-07-31T10:11:44;20.40;78.50
9057;DHT22;4563;54.756;9.400;2023-07-31T10:14:18;20.40;78.40
9057;DHT22;4563;54.756;9.400;2023-07-31T10:16:46;20.40;78.40
9057;DHT22;4563;54.756;9.400;2023-07-31T10:19:14;20.40;78.40
9057;DHT22;4563;54.756;9.400;2023-07-31T10:21:42;20.40;78.50
9057;DHT22;4563;54.756;9.400;2023-07-31T10:24:10;20.40;78.50
9057;DHT22;4563;54.756;9.400;2023-07-31T10:26:38;20.30;78.30
9057;DHT22;4563;54.756;9.400;2023-07-31T10:29:06;20.30;78.30
9057;DHT22;4563;54.756;9.400;2023-07-31T10:31:35;20.30;78.40
9057;DHT22;4563;54.756;9.400;2023-07-31T10:34:02;20.20;78.30
9057;DHT22;4563;54.756;9.400;2023-07-31T10:36:29;20.20;78.40
9057;DHT22;4563;54.756;9.400;2023-07-31T10:38:56;20.20;78.40
9057;DHT22;4563;54.756;9.400;2023-07-31T10:41:29;20.20;78.50
9057;DHT22;4563;54.756;9.400;2023-07-31T10:43:57;20.20;78.40
9057;DHT22;4563;54.756;9.400;2023-07-31T10:46:24;20.10;78.50
9057;DHT22;4563;54.756;9.400;2023-07-31T10:48:59;20.10;78.60
9057;DHT22;4563;54.756;9.400;2023-07-31T10:51:33;20.10;78.30
9057;DHT22;4563;54.756;9.400;2023-07-31T10:54:10;20.10;78.40
9057;DHT22;4563;54.756;9.400;2023-07-31T10:56:38;20.10;78.30
9057;DHT22;4563;54.756;9.400;2023-07-31T10:59:05;20.00;78.60
9057;DHT22;4563;54.756;9.400;2023-07-31T11:01:51;20.00;78.60
9057;DHT22;4563;54.756;9.400;2023-07-31T11:04:23;20.00;78.00
9057;DHT22;4563;54.756;9.400;2023-07-31T11:06:57;20.00;78.40
9057;DHT22;4563;54.756;9.400;2023-07-31T11:09:27;20.00;78.20
9057;DHT22;4563;54.756;9.400;2023-07-31T11:11:55;19.90;78.30
9057;DHT22;4563;54.756;9.400;2023-07-31T11:14:22;19.90;78.40
9057;DHT22;4563;54.756;9.400;2023-07-31T11:16:50;19.90;78.50
9057;DHT22;4563;54.756;9.400;2023-07-31T11:19:22;20.00;78.60
9057;DHT22;4563;54.756;9.400;2023-07-31T11:21:50;19.90;78.30
9057;DHT22;4563;54.756;9.400;2023-07-31T11:24:18;19.90;78.40
9057;DHT22;4563;54.756;9.400;2023-07-31T11:26:49;19.90;78.20
9057;DHT22;4563;54.756;9.400;2023-07-31T11:29:16;19.90;78.10
9057;DHT22;4563;54.756;9.400;2023-07-31T11:31:44;19.90;78.00
9057;DHT22;4563;54.756;9.400;2023-07-31T11:34:12;19.90;78.00
9057;DHT22;4563;54.756;9.400;2023-07-31T11:36:40;19.90;78.10
9057;DHT22;4563;54.756;9.400;2023-07-31T11:39:09;19.90;78.20
9057;DHT22;4563;54.756;9.400;2023-07-31T11:41:36;19.90;78.40
9057;DHT22;4563;54.756;9.400;2023-07-31T11:44:06;19.90;78.50
9057;DHT22;4563;54.756;9.400;2023-07-31T11:46:33;20.00;78.60
9057;DHT22;4563;54.756;9.400;2023-07-31T11:49:01;20.00;78.60
9057;DHT22;4563;54.756;9.400;2023-07-31T11:51:28;20.00;78.40
9057;DHT22;4563;54.756;9.400;2023-07-31T11:53:58;20.00;78.30
9057;DHT22;4563;54.756;9.400;2023-07-31T11:56:27;20.00;78.10
9057;DHT22;4563;54.756;9.400;2023-07-31T11:58:57;20.10;78.20
9057;DHT22;4563;54.756;9.400;2023-07-31T12:01:25;20.10;78.10
9057;DHT22;4563;54.756;9.400;2023-07-31T12:03:53;20.10;78.00
9057;DHT22;4563;54.756;9.400;2023-07-31T12:06:20;20.10;77.70
9057;DHT22;4563;54.756;9.400;2023-07-31T12:08:47;20.10;77.50
9057;DHT22;4563;54.756;9.400;2023-07-31T12:11:16;20.10;77.30
9057;DHT22;4563;54.756;9.400;2023-07-31T12:13:43;20.10;77.30
9057;DHT22;4563;54.756;9.400;2023-07-31T12:16:10;20.20;77.40
9057;DHT22;4563;54.756;9.400;2023-07-31T12:18:37;20.20;77.40
9057;DHT22;4563;54.756;9.400;2023-07-31T12:21:06;20.20;77.30
9057;DHT22;4563;54.756;9.400;2023-07-31T12:23:35;20.20;77.20
9057;DHT22;4563;54.756;9.400;2023-07-31T12:26:02;20.20;77.30
9057;DHT22;4563;54.756;9.400;2023-07-31T12:28:35;20.30;77.30
9057;DHT22;4563;54.756;9.400;2023-07-31T12:31:05;20.30;76.70
9057;DHT22;4563;54.756;9.400;2023-07-31T12:33:33;20.30;76.30
9057;DHT22;4563;54.756;9.400;2023-07-31T12:36:02;20.30;76.30
9057;DHT22;4563;54.756;9.400;2023-07-31T12:38:29;20.30;76.20
9057;DHT22;4563;54.756;9.400;2023-07-31T12:40:56;20.30;76.10
9057;DHT22;4563;54.756;9.400;2023-07-31T12:43:23;20.30;76.20
9057;DHT22;4563;54.756;9.400;2023-07-31T12:45:51;20.30;76.30
9057;DHT22;4563;54.756;9.400;2023-07-31T12:48:18;20.30;76.30
9057;DHT22;4563;54.756;9.400;2023-07-31T12:50:45;20.30;76.30
9057;DHT22;4563;54.756;9.400;2023-07-31T12:53:11;20.40;76.40
9057;DHT22;4563;54.756;9.400;2023-07-31T12:55:38;20.40;76.40
9057;DHT22;4563;54.756;9.400;2023-07-31T12:58:05;20.40;76.40
9057;DHT22;4563;54.756;9.400;2023-07-31T13:00:32;20.40;76.40
9057;DHT22;4563;54.756;9.400;2023-07-31T13:03:01;20.40;76.40
9057;DHT22;4563;54.756;9.400;2023-07-31T13:05:28;20.40;76.50
9057;DHT22;4563;54.756;9.400;2023-07-31T13:07:55;20.40;76.40
9057;DHT22;4563;54.756;9.400;2023-07-31T13:10:22;20.40;76.60
9057;DHT22;4563;54.756;9.400;2023-07-31T13:12:49;20.40;76.70
9057;DHT22;4563;54.756;9.400;2023-07-31T13:15:16;20.40;76.60
9057;DHT22;4563;54.756;9.400;2023-07-31T13:17:43;20.50;76.50
9057;DHT22;4563;54.756;9.400;2023-07-31T13:20:11;20.40;76.40
9057;DHT22;4563;54.756;9.400;2023-07-31T13:22:38;20.40;76.90
9057;DHT22;4563;54.756;9.400;2023-07-31T13:25:06;20.50;76.40
9057;DHT22;4563;54.756;9.400;2023-07-31T13:27:34;20.50;76.40
9057;DHT22;4563;54.756;9.400;2023-07-31T13:30:00;20.50;76.30
9057;DHT22;4563;54.756;9.400;2023-07-31T13:32:27;20.50;76.20
9057;DHT22;4563;54.756;9.400;2023-07-31T13:34:54;20.50;76.20
9057;DHT22;4563;54.756;9.400;2023-07-31T13:37:22;20.50;76.20
9057;DHT22;4563;54.756;9.400;2023-07-31T13:39:49;20.50;76.20
9057;DHT22;4563;54.756;9.400;2023-07-31T13:42:17;20.50;76.20
9057;DHT22;4563;54.756;9.400;2023-07-31T13:44:44;20.50;76.10
9057;DHT22;4563;54.756;9.400;2023-07-31T13:47:11;20.60;76.30
9057;DHT22;4563;54.756;9.400;2023-07-31T13:49:37;20.60;76.40
9057;DHT22;4563;54.756;9.400;2023-07-31T13:52:05;20.60;76.40
9057;DHT22;4563;54.756;9.400;2023-07-31T13:54:33;20.60;76.40
9057;DHT22;4563;54.756;9.400;2023-07-31T13:57:00;20.60;76.20
9057;DHT22;4563;54.756;9.400;2023-07-31T13:59:27;20.60;76.10
9057;DHT22;4563;54.756;9.400;2023-07-31T14:01:53;20.70;76.00
9057;DHT22;4563;54.756;9.400;2023-07-31T14:04:20;20.70;75.90
9057;DHT22;4563;54.756;9.400;2023-07-31T14:06:47;20.70;75.70
9057;DHT22;4563;54.756;9.400;2023-07-31T14:09:16;20.70;75.70
9057;DHT22;4563;54.756;9.400;2023-07-31T14:11:44;20.70;75.70
9057;DHT22;4563;54.756;9.400;2023-07-31T14:14:11;20.70;75.70
9057;DHT22;4563;54.756;9.400;2023-07-31T14:16:40;20.70;75.80
9057;DHT22;4563;54.756;9.400;2023-07-31T14:19:07;20.70;76.00
9057;DHT22;4563;54.756;9.400;2023-07-31T14:21:35;20.70;75.90
9057;DHT22;4563;54.756;9.400;2023-07-31T14:24:02;20.70;75.90
9057;DHT22;4563;54.756;9.400;2023-07-31T14:26:28;20.70;76.00
9057;DHT22;4563;54.756;9.400;2023-07-31T14:28:56;20.70;76.00
9057;DHT22;4563;54.756;9.400;2023-07-31T14:31:23;20.70;76.00
9057;DHT22;4563;54.756;9.400;2023-07-31T14:33:50;20.70;75.90
9057;DHT22;4563;54.756;9.400;2023-07-31T14:36:17;20.70;75.80
9057;DHT22;4563;54.756;9.400;2023-07-31T14:38:44;20.80;75.80
9057;DHT22;4563;54.756;9.400;2023-07-31T14:41:11;20.80;75.80
9057;DHT22;4563;54.756;9.400;2023-07-31T14:43:37;20.80;75.80
9057;DHT22;4563;54.756;9.400;2023-07-31T14:46:06;20.80;75.60
9057;DHT22;4563;54.756;9.400;2023-07-31T14:48:33;20.80;75.60
9057;DHT22;4563;54.756;9.400;2023-07-31T14:51:01;20.80;75.50
9057;DHT22;4563;54.756;9.400;2023-07-31T14:53:28;20.80;75.40
9057;DHT22;4563;54.756;9.400;2023-07-31T14:55:54;20.80;75.10
9057;DHT22;4563;54.756;9.400;2023-07-31T14:58:22;20.80;74.90
9057;DHT22;4563;54.756;9.400;2023-07-31T15:00:49;20.80;74.70
9057;DHT22;4563;54.756;9.400;2023-07-31T15:03:17;20.90;74.60
9057;DHT22;4563;54.756;9.400;2023-07-31T15:05:44;20.90;74.60
9057;DHT22;4563;54.756;9.400;2023-07-31T15:08:11;20.90;74.60
9057;DHT22;4563;54.756;9.400;2023-07-31T15:10:37;20.80;74.50
9057;DHT22;4563;54.756;9.400;2023-07-31T15:13:04;20.80;74.40
9057;DHT22;4563;54.756;9.400;2023-07-31T15:15:31;20.80;74.40
9057;DHT22;4563;54.756;9.400;2023-07-31T15:17:58;20.80;74.60
9057;DHT22;4563;54.756;9.400;2023-07-31T15:20:26;20.80;74.60
9057;DHT22;4563;54.756;9.400;2023-07-31T15:22:53;20.80;74.40
9057;DHT22;4563;54.756;9.400;2023-07-31T15:25:20;20.80;74.20
9057;DHT22;4563;54.756;9.400;2023-07-31T15:27:47;20.80;74.30
9057;DHT22;4563;54.756;9.400;2023-07-31T15:30:13;20.70;74.20
9057;DHT22;4563;54.756;9.400;2023-07-31T15:32:40;20.70;74.30
9057;DHT22;4563;54.756;9.400;2023-07-31T15:35:08;20.70;74.40
9057;DHT22;4563;54.756;9.400;2023-07-31T15:37:36;20.70;74.50
9057;DHT22;4563;54.756;9.400;2023-07-31T15:40:03;20.70;74.80
9057;DHT22;4563;54.756;9.400;2023-07-31T15:42:30;20.60;75.10
9057;DHT22;4563;54.756;9.400;2023-07-31T15:44:59;20.60;75.30
9057;DHT22;4563;54.756;9.400;2023-07-31T15:47:25;20.60;75.40
9057;DHT22;4563;54.756;9.400;2023-07-31T15:49:52;20.60;75.40
9057;DHT22;4563;54.756;9.400;2023-07-31T15:52:19;20.70;75.60
9057;DHT22;4563;54.756;9.400;2023-07-31T15:54:47;20.60;75.50
9057;DHT22;4563;54.756;9.400;2023-07-31T15:57:14;20.60;75.60
9057;DHT22;4563;54.756;9.400;2023-07-31T15:59:41;20.60;75.60
9057;DHT22;4563;54.756;9.400;2023-07-31T16:02:09;20.60;76.40
9057;DHT22;4563;54.756;9.400;2023-07-31T16:04:36;20.60;75.60
9057;DHT22;4563;54.756;9.400;2023-07-31T16:07:04;20.60;75.60